sensor_id;sensor_type;location;lat;lon;timestamp;P1;durP1;ratioP1;P2;durP2;ratioP2
17420;SDS011;8828;48.800;9.540;2022-08-19T00:00:02;12.43;;;8.47;;
17420;SDS011;8828;48.800;9.540;2022-08-19T00:02:31;10.13;;;8.07;;
17420;SDS011;8828;48.800;9.540;2022-08-19T00:04:59;11.90;;;8.17;;
17420;SDS011;8828;48.800;9.540;2022-08-19T00:07:27;11.50;;;8.80;;
17420;SDS011;8828;48.800;9.540;2022-08-19T00:09:55;12.10;;;8.60;;
17420;SDS011;8828;48.800;9.540;2022-08-19T00:12:23;15.07;;;8.73;;
17420;SDS011;8828;48.800;9.540;2022-08-19T00:14:53;10.00;;;8.00;;
17420;SDS011;8828;48.800;9.540;2022-08-19T00:17:21;13.40;;;8.83;;
17420;SDS011;8828;48.800;9.540;2022-08-19T00:19:49;11.93;;;8.10;;
17420;SDS011;8828;48.800;9.540;2022-08-19T00:22:17;12.43;;;8.83;;
17420;SDS011;8828;48.800;9.540;2022-08-19T00:24:45;13.93;;;8.20;;
17420;SDS011;8828;48.800;9.540;2022-08-19T00:27:16;11.13;;;8.60;;
17420;SDS011;8828;48.800;9.540;2022-08-19T00:29:53;11.33;;;8.07;;
17420;SDS011;8828;48.800;9.540;2022-08-19T00:32:21;11.60;;;8.10;;
17420;SDS011;8828;48.800;9.540;2022-08-19T00:34:52;10.63;;;8.10;;
17420;SDS011;8828;48.800;9.540;2022-08-19T00:37:20;11.50;;;8.13;;
17420;SDS011;8828;48.800;9.540;2022-08-19T00:39:49;11.57;;;8.30;;
17420;SDS011;8828;48.800;9.540;2022-08-19T00:42:18;10.13;;;7.53;;
17420;SDS011;8828;48.800;9.540;2022-08-19T00:44:48;11.33;;;8.80;;
17420;SDS011;8828;48.800;9.540;2022-08-19T00:47:18;14.10;;;9.13;;
17420;SDS011;8828;48.800;9.540;2022-08-19T00:49:48;11.53;;;8.27;;
17420;SDS011;8828;48.800;9.540;2022-08-19T00:52:20;10.10;;;7.43;;
17420;SDS011;8828;48.800;9.540;2022-08-19T00:54:50;10.27;;;7.83;;
17420;SDS011;8828;48.800;9.540;2022-08-19T00:57:30;13.77;;;8.47;;
17420;SDS011;8828;48.800;9.540;2022-08-19T01:00:03;10.67;;;8.17;;
17420;SDS011;8828;48.800;9.540;2022-08-19T01:02:34;13.63;;;8.43;;
17420;SDS011;8828;48.800;9.540;2022-08-19T01:05:05;11.70;;;8.23;;
17420;SDS011;8828;48.800;9.540;2022-08-19T01:07:36;11.40;;;8.00;;
17420;SDS011;8828;48.800;9.540;2022-08-19T01:10:08;12.23;;;7.60;;
17420;SDS011;8828;48.800;9.540;2022-08-19T01:12:38;9.83;;;7.87;;
17420;SDS011;8828;48.800;9.540;2022-08-19T01:15:07;11.57;;;8.60;;
17420;SDS011;8828;48.800;9.540;2022-08-19T01:17:39;14.27;;;8.03;;
17420;SDS011;8828;48.800;9.540;2022-08-19T01:20:11;11.17;;;7.93;;
17420;SDS011;8828;48.800;9.540;2022-08-19T01:22:43;11.33;;;8.10;;
17420;SDS011;8828;48.800;9.540;2022-08-19T01:25:14;10.43;;;8.20;;
17420;SDS011;8828;48.800;9.540;2022-08-19T01:27:44;11.03;;;8.63;;
17420;SDS011;8828;48.800;9.540;2022-08-19T01:30:19;11.47;;;8.40;;
17420;SDS011;8828;48.800;9.540;2022-08-19T01:32:50;13.60;;;8.50;;
17420;SDS011;8828;48.800;9.540;2022-08-19T01:35:19;11.03;;;8.63;;
17420;SDS011;8828;48.800;9.540;2022-08-19T01:37:51;11.13;;;8.33;;
17420;SDS011;8828;48.800;9.540;2022-08-19T01:40:22;10.87;;;7.97;;
17420;SDS011;8828;48.800;9.540;2022-08-19T01:42:52;13.23;;;8.93;;
17420;SDS011;8828;48.800;9.540;2022-08-19T01:45:22;17.27;;;9.50;;
17420;SDS011;8828;48.800;9.540;2022-08-19T01:47:51;10.93;;;8.53;;
17420;SDS011;8828;48.800;9.540;2022-08-19T01:50:28;13.33;;;8.80;;
17420;SDS011;8828;48.800;9.540;2022-08-19T01:52:59;13.30;;;8.77;;
17420;SDS011;8828;48.800;9.540;2022-08-19T01:55:33;15.17;;;9.30;;
17420;SDS011;8828;48.800;9.540;2022-08-19T01:58:07;11.87;;;8.53;;
17420;SDS011;8828;48.800;9.540;2022-08-19T02:00:38;12.23;;;8.63;;
17420;SDS011;8828;48.800;9.540;2022-08-19T02:03:07;12.60;;;9.30;;
17420;SDS011;8828;48.800;9.540;2022-08-19T02:05:37;11.27;;;8.03;;
17420;SDS011;8828;48.800;9.540;2022-08-19T02:08:07;12.23;;;9.20;;
17420;SDS011;8828;48.800;9.540;2022-08-19T02:10:38;12.47;;;8.83;;
17420;SDS011;8828;48.800;9.540;2022-08-19T02:13:07;14.03;;;8.87;;
17420;SDS011;8828;48.800;9.540;2022-08-19T02:15:36;13.27;;;9.03;;
17420;SDS011;8828;48.800;9.540;2022-08-19T02:18:04;14.90;;;9.83;;
17420;SDS011;8828;48.800;9.540;2022-08-19T02:20:33;12.60;;;8.53;;
17420;SDS011;8828;48.800;9.540;2022-08-19T02:23:01;13.80;;;8.83;;
17420;SDS011;8828;48.800;9.540;2022-08-19T02:25:31;13.23;;;8.50;;
17420;SDS011;8828;48.800;9.540;2022-08-19T02:27:59;13.13;;;9.23;;
17420;SDS011;8828;48.800;9.540;2022-08-19T02:30:27;13.07;;;8.77;;
17420;SDS011;8828;48.800;9.540;2022-08-19T02:32:55;12.57;;;8.40;;
17420;SDS011;8828;48.800;9.540;2022-08-19T02:35:24;12.70;;;8.97;;
17420;SDS011;8828;48.800;9.540;2022-08-19T02:37:52;13.23;;;9.37;;
17420;SDS011;8828;48.800;9.540;2022-08-19T02:40:39;14.17;;;9.43;;
17420;SDS011;8828;48.800;9.540;2022-08-19T02:43:07;12.00;;;8.90;;
17420;SDS011;8828;48.800;9.540;2022-08-19T02:45:37;15.07;;;9.83;;
17420;SDS011;8828;48.800;9.540;2022-08-19T02:48:07;12.30;;;8.97;;
17420;SDS011;8828;48.800;9.540;2022-08-19T02:50:47;16.30;;;9.17;;
17420;SDS011;8828;48.800;9.540;2022-08-19T02:53:18;13.87;;;9.10;;
17420;SDS011;8828;48.800;9.540;2022-08-19T02:55:49;11.43;;;8.63;;
17420;SDS011;8828;48.800;9.540;2022-08-19T02:58:18;15.87;;;10.07;;
17420;SDS011;8828;48.800;9.540;2022-08-19T03:00:51;13.33;;;9.03;;
17420;SDS011;8828;48.800;9.540;2022-08-19T03:03:21;12.07;;;8.60;;
17420;SDS011;8828;48.800;9.540;2022-08-19T03:05:49;13.77;;;9.20;;
17420;SDS011;8828;48.800;9.540;2022-08-19T03:08:22;13.30;;;9.23;;
17420;SDS011;8828;48.800;9.540;2022-08-19T03:10:53;12.87;;;9.13;;
17420;SDS011;8828;48.800;9.540;2022-08-19T03:13:21;13.17;;;9.33;;
17420;SDS011;8828;48.800;9.540;2022-08-19T03:15:49;13.03;;;9.30;;
17420;SDS011;8828;48.800;9.540;2022-08-19T03:18:17;14.47;;;9.10;;
17420;SDS011;8828;48.800;9.540;2022-08-19T03:20:49;12.83;;;8.97;;
17420;SDS011;8828;48.800;9.540;2022-08-19T03:23:20;14.70;;;9.47;;
17420;SDS011;8828;48.800;9.540;2022-08-19T03:25:49;13.87;;;9.60;;
17420;SDS011;8828;48.800;9.540;2022-08-19T03:28:41;14.83;;;9.47;;
17420;SDS011;8828;48.800;9.540;2022-08-19T03:31:24;15.20;;;9.27;;
17420;SDS011;8828;48.800;9.540;2022-08-19T03:34:16;14.90;;;8.67;;
17420;SDS011;8828;48.800;9.540;2022-08-19T03:36:46;16.93;;;9.90;;
17420;SDS011;8828;48.800;9.540;2022-08-19T03:39:15;15.33;;;10.20;;
17420;SDS011;8828;48.800;9.540;2022-08-19T03:41:43;13.30;;;9.07;;
17420;SDS011;8828;48.800;9.540;2022-08-19T03:44:16;12.37;;;8.57;;
17420;SDS011;8828;48.800;9.540;2022-08-19T03:46:50;13.40;;;9.43;;
17420;SDS011;8828;48.800;9.540;2022-08-19T03:49:20;12.40;;;9.30;;
17420;SDS011;8828;48.800;9.540;2022-08-19T03:51:54;15.90;;;9.93;;
17420;SDS011;8828;48.800;9.540;2022-08-19T03:54:24;15.67;;;9.93;;
17420;SDS011;8828;48.800;9.540;2022-08-19T03:56:54;15.80;;;10.03;;
17420;SDS011;8828;48.800;9.540;2022-08-19T03:59:26;16.27;;;9.70;;
17420;SDS011;8828;48.800;9.540;2022-08-19T04:01:56;13.93;;;9.17;;
17420;SDS011;8828;48.800;9.540;2022-08-19T04:04:25;15.23;;;9.87;;
17420;SDS011;8828;48.800;9.540;2022-08-19T04:06:54;13.60;;;9.40;;
17420;SDS011;8828;48.800;9.540;2022-08-19T04:09:23;14.73;;;9.60;;
17420;SDS011;8828;48.800;9.540;2022-08-19T04:11:54;15.30;;;10.80;;
17420;SDS011;8828;48.800;9.540;2022-08-19T04:14:25;15.37;;;9.83;;
17420;SDS011;8828;48.800;9.540;2022-08-19T04:16:56;14.70;;;9.60;;
17420;SDS011;8828;48.800;9.540;2022-08-19T04:19:25;15.47;;;10.27;;
17420;SDS011;8828;48.800;9.540;2022-08-19T04:21:54;18.20;;;12.00;;
17420;SDS011;8828;48.800;9.540;2022-08-19T04:24:22;14.90;;;10.60;;
17420;SDS011;8828;48.800;9.540;2022-08-19T04:26:51;16.87;;;10.30;;
17420;SDS011;8828;48.800;9.540;2022-08-19T04:29:20;13.93;;;9.47;;
17420;SDS011;8828;48.800;9.540;2022-08-19T04:31:53;16.30;;;9.93;;
17420;SDS011;8828;48.800;9.540;2022-08-19T04:34:22;19.80;;;11.07;;
17420;SDS011;8828;48.800;9.540;2022-08-19T04:36:54;19.00;;;10.30;;
17420;SDS011;8828;48.800;9.540;2022-08-19T04:39:25;16.07;;;9.97;;
17420;SDS011;8828;48.800;9.540;2022-08-19T04:42:15;16.87;;;9.83;;
17420;SDS011;8828;48.800;9.540;2022-08-19T04:45:01;16.07;;;10.13;;
17420;SDS011;8828;48.800;9.540;2022-08-19T04:47:32;14.70;;;9.77;;
17420;SDS011;8828;48.800;9.540;2022-08-19T04:50:19;23.23;;;12.90;;
17420;SDS011;8828;48.800;9.540;2022-08-19T04:52:49;17.40;;;10.70;;
17420;SDS011;8828;48.800;9.540;2022-08-19T04:55:18;15.70;;;10.23;;
17420;SDS011;8828;48.800;9.540;2022-08-19T04:57:46;15.10;;;10.10;;
17420;SDS011;8828;48.800;9.540;2022-08-19T05:00:15;16.40;;;9.50;;
17420;SDS011;8828;48.800;9.540;2022-08-19T05:02:44;18.50;;;10.00;;
17420;SDS011;8828;48.800;9.540;2022-08-19T05:05:12;15.87;;;10.10;;
17420;SDS011;8828;48.800;9.540;2022-08-19T05:07:40;15.00;;;9.83;;
17420;SDS011;8828;48.800;9.540;2022-08-19T05:10:08;16.67;;;10.10;;
17420;SDS011;8828;48.800;9.540;2022-08-19T05:12:37;15.97;;;10.07;;
17420;SDS011;8828;48.800;9.540;2022-08-19T05:15:06;16.17;;;10.17;;
17420;SDS011;8828;48.800;9.540;2022-08-19T05:17:35;16.10;;;9.70;;
17420;SDS011;8828;48.800;9.540;2022-08-19T05:20:06;16.87;;;9.50;;
17420;SDS011;8828;48.800;9.540;2022-08-19T05:23:01;18.03;;;11.10;;
17420;SDS011;8828;48.800;9.540;2022-08-19T05:25:38;17.50;;;10.53;;
17420;SDS011;8828;48.800;9.540;2022-08-19T05:28:07;17.20;;;9.97;;
17420;SDS011;8828;48.800;9.540;2022-08-19T05:30:35;15.10;;;10.30;;
17420;SDS011;8828;48.800;9.540;2022-08-19T05:33:12;14.50;;;9.80;;
17420;SDS011;8828;48.800;9.540;2022-08-19T05:35:42;18.33;;;11.33;;
17420;SDS011;8828;48.800;9.540;2022-08-19T05:38:10;16.70;;;10.90;;
17420;SDS011;8828;48.800;9.540;2022-08-19T05:40:39;18.03;;;11.20;;
17420;SDS011;8828;48.800;9.540;2022-08-19T05:43:07;22.63;;;13.50;;
17420;SDS011;8828;48.800;9.540;2022-08-19T05:45:38;19.20;;;11.63;;
17420;SDS011;8828;48.800;9.540;2022-08-19T05:48:08;20.20;;;11.40;;
17420;SDS011;8828;48.800;9.540;2022-08-19T05:50:37;16.97;;;10.90;;
17420;SDS011;8828;48.800;9.540;2022-08-19T05:53:07;16.80;;;10.63;;
17420;SDS011;8828;48.800;9.540;2022-08-19T05:55:35;17.30;;;10.97;;
17420;SDS011;8828;48.800;9.540;2022-08-19T05:58:05;20.07;;;11.30;;
17420;SDS011;8828;48.800;9.540;2022-08-19T06:00:34;18.17;;;11.40;;
17420;SDS011;8828;48.800;9.540;2022-08-19T06:03:02;20.73;;;12.10;;
17420;SDS011;8828;48.800;9.540;2022-08-19T06:05:38;17.60;;;10.77;;
17420;SDS011;8828;48.800;9.540;2022-08-19T06:08:18;20.13;;;12.13;;
17420;SDS011;8828;48.800;9.540;2022-08-19T06:11:13;23.73;;;11.80;;
17420;SDS011;8828;48.800;9.540;2022-08-19T06:13:43;20.37;;;11.70;;
17420;SDS011;8828;48.800;9.540;2022-08-19T06:16:13;19.80;;;12.00;;
17420;SDS011;8828;48.800;9.540;2022-08-19T06:18:45;23.30;;;10.87;;
17420;SDS011;8828;48.800;9.540;2022-08-19T06:21:14;19.87;;;12.27;;
17420;SDS011;8828;48.800;9.540;2022-08-19T06:23:43;20.60;;;12.17;;
17420;SDS011;8828;48.800;9.540;2022-08-19T06:26:13;23.93;;;12.40;;
17420;SDS011;8828;48.800;9.540;2022-08-19T06:28:42;21.57;;;13.17;;
17420;SDS011;8828;48.800;9.540;2022-08-19T06:31:13;18.63;;;12.17;;
17420;SDS011;8828;48.800;9.540;2022-08-19T06:33:42;21.50;;;13.23;;
17420;SDS011;8828;48.800;9.540;2022-08-19T06:36:16;21.17;;;13.00;;
17420;SDS011;8828;48.800;9.540;2022-08-19T06:38:46;23.60;;;13.43;;
17420;SDS011;8828;48.800;9.540;2022-08-19T06:41:14;29.73;;;17.37;;
17420;SDS011;8828;48.800;9.540;2022-08-19T06:43:42;33.20;;;18.20;;
17420;SDS011;8828;48.800;9.540;2022-08-19T06:46:12;22.37;;;13.17;;
17420;SDS011;8828;48.800;9.540;2022-08-19T06:48:40;21.87;;;12.43;;
17420;SDS011;8828;48.800;9.540;2022-08-19T06:51:11;21.97;;;13.33;;
17420;SDS011;8828;48.800;9.540;2022-08-19T06:53:44;25.40;;;13.97;;
17420;SDS011;8828;48.800;9.540;2022-08-19T06:56:20;21.70;;;12.73;;
17420;SDS011;8828;48.800;9.540;2022-08-19T06:58:51;21.23;;;12.43;;
17420;SDS011;8828;48.800;9.540;2022-08-19T07:01:19;22.37;;;12.93;;
17420;SDS011;8828;48.800;9.540;2022-08-19T07:03:47;23.47;;;13.20;;
17420;SDS011;8828;48.800;9.540;2022-08-19T07:06:16;20.50;;;11.87;;
17420;SDS011;8828;48.800;9.540;2022-08-19T07:09:10;21.57;;;11.97;;
17420;SDS011;8828;48.800;9.540;2022-08-19T07:11:44;27.57;;;13.60;;
17420;SDS011;8828;48.800;9.540;2022-08-19T07:14:13;22.40;;;13.03;;
17420;SDS011;8828;48.800;9.540;2022-08-19T07:16:45;21.27;;;13.43;;
17420;SDS011;8828;48.800;9.540;2022-08-19T07:19:15;23.53;;;12.87;;
17420;SDS011;8828;48.800;9.540;2022-08-19T07:21:44;24.43;;;13.83;;
17420;SDS011;8828;48.800;9.540;2022-08-19T07:24:17;23.20;;;14.13;;
17420;SDS011;8828;48.800;9.540;2022-08-19T07:26:45;22.00;;;13.63;;
17420;SDS011;8828;48.800;9.540;2022-08-19T07:29:17;29.60;;;13.27;;
17420;SDS011;8828;48.800;9.540;2022-08-19T07:31:51;23.63;;;13.50;;
17420;SDS011;8828;48.800;9.540;2022-08-19T07:34:22;23.03;;;12.77;;
17420;SDS011;8828;48.800;9.540;2022-08-19T07:36:50;20.70;;;13.07;;
17420;SDS011;8828;48.800;9.540;2022-08-19T07:39:22;21.50;;;13.23;;
17420;SDS011;8828;48.800;9.540;2022-08-19T07:41:52;20.70;;;13.97;;
17420;SDS011;8828;48.800;9.540;2022-08-19T07:44:21;23.80;;;13.83;;
17420;SDS011;8828;48.800;9.540;2022-08-19T07:46:50;22.03;;;14.33;;
17420;SDS011;8828;48.800;9.540;2022-08-19T07:49:22;21.90;;;13.87;;
17420;SDS011;8828;48.800;9.540;2022-08-19T07:51:52;24.10;;;14.67;;
17420;SDS011;8828;48.800;9.540;2022-08-19T07:54:23;22.53;;;13.87;;
17420;SDS011;8828;48.800;9.540;2022-08-19T07:56:53;24.43;;;15.00;;
17420;SDS011;8828;48.800;9.540;2022-08-19T07:59:21;24.37;;;15.13;;
17420;SDS011;8828;48.800;9.540;2022-08-19T08:01:49;21.47;;;14.03;;
17420;SDS011;8828;48.800;9.540;2022-08-19T08:04:18;23.00;;;14.03;;
17420;SDS011;8828;48.800;9.540;2022-08-19T08:07:05;24.40;;;14.90;;
17420;SDS011;8828;48.800;9.540;2022-08-19T08:09:58;25.23;;;14.33;;
17420;SDS011;8828;48.800;9.540;2022-08-19T08:12:30;27.53;;;15.53;;
17420;SDS011;8828;48.800;9.540;2022-08-19T08:15:05;21.53;;;13.73;;
17420;SDS011;8828;48.800;9.540;2022-08-19T08:17:38;24.37;;;14.53;;
17420;SDS011;8828;48.800;9.540;2022-08-19T08:20:17;22.10;;;13.70;;
17420;SDS011;8828;48.800;9.540;2022-08-19T08:22:46;20.97;;;13.63;;
17420;SDS011;8828;48.800;9.540;2022-08-19T08:25:33;25.43;;;14.27;;
17420;SDS011;8828;48.800;9.540;2022-08-19T08:28:03;23.33;;;14.10;;
17420;SDS011;8828;48.800;9.540;2022-08-19T08:30:36;23.90;;;14.60;;
17420;SDS011;8828;48.800;9.540;2022-08-19T08:33:10;26.23;;;15.63;;
17420;SDS011;8828;48.800;9.540;2022-08-19T08:35:39;25.27;;;15.77;;
17420;SDS011;8828;48.800;9.540;2022-08-19T08:38:08;25.73;;;14.67;;
17420;SDS011;8828;48.800;9.540;2022-08-19T08:40:39;23.60;;;15.97;;
17420;SDS011;8828;48.800;9.540;2022-08-19T08:43:27;22.40;;;13.57;;
17420;SDS011;8828;48.800;9.540;2022-08-19T08:46:00;22.40;;;14.87;;
17420;SDS011;8828;48.800;9.540;2022-08-19T08:48:35;24.83;;;15.03;;
17420;SDS011;8828;48.800;9.540;2022-08-19T08:51:08;24.63;;;13.87;;
17420;SDS011;8828;48.800;9.540;2022-08-19T08:53:38;22.20;;;14.17;;
17420;SDS011;8828;48.800;9.540;2022-08-19T08:56:10;23.30;;;15.47;;
17420;SDS011;8828;48.800;9.540;2022-08-19T08:58:46;28.80;;;15.87;;
17420;SDS011;8828;48.800;9.540;2022-08-19T09:01:20;24.47;;;14.17;;
17420;SDS011;8828;48.800;9.540;2022-08-19T09:03:48;22.13;;;13.73;;
17420;SDS011;8828;48.800;9.540;2022-08-19T09:06:25;24.10;;;15.30;;
17420;SDS011;8828;48.800;9.540;2022-08-19T09:09:10;20.17;;;14.03;;
17420;SDS011;8828;48.800;9.540;2022-08-19T09:14:38;22.30;;;13.40;;
17420;SDS011;8828;48.800;9.540;2022-08-19T09:17:16;22.93;;;13.60;;
17420;SDS011;8828;48.800;9.540;2022-08-19T09:19:49;25.87;;;16.13;;
17420;SDS011;8828;48.800;9.540;2022-08-19T09:22:20;26.67;;;16.07;;
17420;SDS011;8828;48.800;9.540;2022-08-19T09:24:51;20.43;;;13.00;;
17420;SDS011;8828;48.800;9.540;2022-08-19T09:27:21;26.07;;;13.83;;
17420;SDS011;8828;48.800;9.540;2022-08-19T09:30:08;22.67;;;12.90;;
17420;SDS011;8828;48.800;9.540;2022-08-19T09:32:39;21.53;;;13.27;;
17420;SDS011;8828;48.800;9.540;2022-08-19T09:35:08;18.73;;;12.17;;
17420;SDS011;8828;48.800;9.540;2022-08-19T09:37:37;22.80;;;13.37;;
17420;SDS011;8828;48.800;9.540;2022-08-19T09:40:06;19.90;;;11.97;;
17420;SDS011;8828;48.800;9.540;2022-08-19T09:42:38;19.50;;;12.67;;
17420;SDS011;8828;48.800;9.540;2022-08-19T09:45:18;19.30;;;11.60;;
17420;SDS011;8828;48.800;9.540;2022-08-19T09:47:48;19.60;;;11.80;;
17420;SDS011;8828;48.800;9.540;2022-08-19T09:50:20;20.97;;;11.87;;
17420;SDS011;8828;48.800;9.540;2022-08-19T09:52:49;22.10;;;11.63;;
17420;SDS011;8828;48.800;9.540;2022-08-19T09:55:22;17.30;;;11.53;;
17420;SDS011;8828;48.800;9.540;2022-08-19T09:57:58;19.43;;;11.53;;
17420;SDS011;8828;48.800;9.540;2022-08-19T10:00:27;21.33;;;12.17;;
17420;SDS011;8828;48.800;9.540;2022-08-19T10:02:56;20.40;;;12.37;;
17420;SDS011;8828;48.800;9.540;2022-08-19T10:05:24;20.03;;;11.40;;
17420;SDS011;8828;48.800;9.540;2022-08-19T10:08:09;22.80;;;13.33;;
17420;SDS011;8828;48.800;9.540;2022-08-19T10:10:40;18.47;;;11.67;;
17420;SDS011;8828;48.800;9.540;2022-08-19T10:13:13;20.47;;;12.03;;
17420;SDS011;8828;48.800;9.540;2022-08-19T10:15:42;20.50;;;12.03;;
17420;SDS011;8828;48.800;9.540;2022-08-19T10:18:14;20.50;;;12.03;;
17420;SDS011;8828;48.800;9.540;2022-08-19T10:20:44;22.73;;;12.77;;
17420;SDS011;8828;48.800;9.540;2022-08-19T10:23:18;20.57;;;11.80;;
17420;SDS011;8828;48.800;9.540;2022-08-19T10:25:46;21.10;;;12.80;;
17420;SDS011;8828;48.800;9.540;2022-08-19T10:28:17;20.23;;;12.87;;
17420;SDS011;8828;48.800;9.540;2022-08-19T10:30:45;18.33;;;11.80;;
17420;SDS011;8828;48.800;9.540;2022-08-19T10:33:14;21.10;;;13.07;;
17420;SDS011;8828;48.800;9.540;2022-08-19T10:36:02;19.93;;;12.20;;
17420;SDS011;8828;48.800;9.540;2022-08-19T10:38:33;22.03;;;12.53;;
17420;SDS011;8828;48.800;9.540;2022-08-19T10:41:08;20.23;;;12.37;;
17420;SDS011;8828;48.800;9.540;2022-08-19T10:43:40;20.67;;;12.50;;
17420;SDS011;8828;48.800;9.540;2022-08-19T10:46:09;22.10;;;13.20;;
17420;SDS011;8828;48.800;9.540;2022-08-19T10:48:42;18.57;;;11.80;;
17420;SDS011;8828;48.800;9.540;2022-08-19T10:51:11;22.73;;;12.50;;
17420;SDS011;8828;48.800;9.540;2022-08-19T10:53:57;19.53;;;11.90;;
17420;SDS011;8828;48.800;9.540;2022-08-19T10:56:26;20.00;;;12.23;;
17420;SDS011;8828;48.800;9.540;2022-08-19T10:59:14;21.60;;;12.67;;
17420;SDS011;8828;48.800;9.540;2022-08-19T11:01:44;17.97;;;12.10;;
17420;SDS011;8828;48.800;9.540;2022-08-19T11:04:16;17.67;;;11.73;;
17420;SDS011;8828;48.800;9.540;2022-08-19T11:06:46;20.73;;;12.27;;
17420;SDS011;8828;48.800;9.540;2022-08-19T11:09:15;18.37;;;11.57;;
17420;SDS011;8828;48.800;9.540;2022-08-19T11:11:46;21.77;;;12.03;;
17420;SDS011;8828;48.800;9.540;2022-08-19T11:14:17;23.80;;;12.83;;
17420;SDS011;8828;48.800;9.540;2022-08-19T11:16:46;20.33;;;12.03;;
17420;SDS011;8828;48.800;9.540;2022-08-19T11:19:15;20.87;;;11.57;;
17420;SDS011;8828;48.800;9.540;2022-08-19T11:21:46;17.87;;;12.27;;
17420;SDS011;8828;48.800;9.540;2022-08-19T11:24:16;20.03;;;12.30;;
17420;SDS011;8828;48.800;9.540;2022-08-19T11:26:46;17.93;;;11.87;;
17420;SDS011;8828;48.800;9.540;2022-08-19T11:29:17;18.90;;;12.47;;
17420;SDS011;8828;48.800;9.540;2022-08-19T11:31:48;18.73;;;11.47;;
17420;SDS011;8828;48.800;9.540;2022-08-19T11:34:18;17.53;;;10.97;;
17420;SDS011;8828;48.800;9.540;2022-08-19T11:36:48;17.87;;;11.23;;
17420;SDS011;8828;48.800;9.540;2022-08-19T11:39:18;18.90;;;11.33;;
17420;SDS011;8828;48.800;9.540;2022-08-19T11:41:47;20.07;;;12.40;;
17420;SDS011;8828;48.800;9.540;2022-08-19T11:44:17;22.97;;;12.33;;
17420;SDS011;8828;48.800;9.540;2022-08-19T11:46:45;23.53;;;12.00;;
17420;SDS011;8828;48.800;9.540;2022-08-19T11:49:14;18.23;;;10.90;;
17420;SDS011;8828;48.800;9.540;2022-08-19T11:51:45;19.07;;;12.07;;
17420;SDS011;8828;48.800;9.540;2022-08-19T11:54:13;19.03;;;11.73;;
17420;SDS011;8828;48.800;9.540;2022-08-19T11:56:42;22.83;;;12.60;;
17420;SDS011;8828;48.800;9.540;2022-08-19T11:59:11;15.93;;;11.77;;
17420;SDS011;8828;48.800;9.540;2022-08-19T12:01:42;17.97;;;11.60;;
17420;SDS011;8828;48.800;9.540;2022-08-19T12:04:10;17.07;;;11.30;;
17420;SDS011;8828;48.800;9.540;2022-08-19T12:06:39;18.20;;;11.40;;
17420;SDS011;8828;48.800;9.540;2022-08-19T12:09:08;16.47;;;11.73;;
17420;SDS011;8828;48.800;9.540;2022-08-19T12:11:37;20.00;;;11.60;;
17420;SDS011;8828;48.800;9.540;2022-08-19T12:14:08;19.60;;;11.70;;
17420;SDS011;8828;48.800;9.540;2022-08-19T12:16:43;19.23;;;11.67;;
17420;SDS011;8828;48.800;9.540;2022-08-19T12:19:18;17.83;;;11.53;;
17420;SDS011;8828;48.800;9.540;2022-08-19T12:21:48;18.70;;;12.30;;
17420;SDS011;8828;48.800;9.540;2022-08-19T12:24:17;19.33;;;12.33;;
17420;SDS011;8828;48.800;9.540;2022-08-19T12:26:49;20.37;;;12.47;;
17420;SDS011;8828;48.800;9.540;2022-08-19T12:29:19;19.77;;;11.93;;
17420;SDS011;8828;48.800;9.540;2022-08-19T12:31:50;18.87;;;12.00;;
17420;SDS011;8828;48.800;9.540;2022-08-19T12:34:19;19.97;;;11.73;;
17420;SDS011;8828;48.800;9.540;2022-08-19T12:36:47;16.47;;;11.13;;
17420;SDS011;8828;48.800;9.540;2022-08-19T12:39:16;21.17;;;12.20;;
17420;SDS011;8828;48.800;9.540;2022-08-19T12:41:44;20.50;;;12.47;;
17420;SDS011;8828;48.800;9.540;2022-08-19T12:44:20;21.27;;;12.27;;
17420;SDS011;8828;48.800;9.540;2022-08-19T12:46:55;19.47;;;12.40;;
17420;SDS011;8828;48.800;9.540;2022-08-19T12:49:23;20.53;;;12.40;;
17420;SDS011;8828;48.800;9.540;2022-08-19T12:52:12;18.40;;;11.40;;
17420;SDS011;8828;48.800;9.540;2022-08-19T12:54:48;19.97;;;12.10;;
17420;SDS011;8828;48.800;9.540;2022-08-19T12:57:20;18.53;;;11.40;;
17420;SDS011;8828;48.800;9.540;2022-08-19T12:59:58;18.83;;;11.67;;
17420;SDS011;8828;48.800;9.540;2022-08-19T13:02:31;17.03;;;11.20;;
17420;SDS011;8828;48.800;9.540;2022-08-19T13:05:04;19.23;;;12.87;;
17420;SDS011;8828;48.800;9.540;2022-08-19T13:07:34;17.17;;;10.67;;
17420;SDS011;8828;48.800;9.540;2022-08-19T13:10:03;20.50;;;12.13;;
17420;SDS011;8828;48.800;9.540;2022-08-19T13:12:33;16.47;;;10.73;;
17420;SDS011;8828;48.800;9.540;2022-08-19T13:15:01;17.00;;;11.13;;
17420;SDS011;8828;48.800;9.540;2022-08-19T13:17:38;18.77;;;11.83;;
17420;SDS011;8828;48.800;9.540;2022-08-19T13:20:08;19.37;;;11.83;;
17420;SDS011;8828;48.800;9.540;2022-08-19T13:22:37;19.37;;;11.80;;
17420;SDS011;8828;48.800;9.540;2022-08-19T13:25:06;15.67;;;10.73;;
17420;SDS011;8828;48.800;9.540;2022-08-19T13:27:35;17.53;;;11.77;;
17420;SDS011;8828;48.800;9.540;2022-08-19T13:30:04;23.17;;;15.10;;
17420;SDS011;8828;48.800;9.540;2022-08-19T13:32:53;18.23;;;12.03;;
17420;SDS011;8828;48.800;9.540;2022-08-19T13:35:42;18.00;;;11.40;;
17420;SDS011;8828;48.800;9.540;2022-08-19T13:38:13;18.63;;;10.97;;
17420;SDS011;8828;48.800;9.540;2022-08-19T13:40:43;16.30;;;10.57;;
17420;SDS011;8828;48.800;9.540;2022-08-19T13:43:12;16.97;;;10.30;;
17420;SDS011;8828;48.800;9.540;2022-08-19T13:45:49;18.67;;;11.10;;
17420;SDS011;8828;48.800;9.540;2022-08-19T13:48:20;21.70;;;11.47;;
17420;SDS011;8828;48.800;9.540;2022-08-19T13:50:49;16.60;;;10.90;;
17420;SDS011;8828;48.800;9.540;2022-08-19T13:53:18;16.37;;;11.23;;
17420;SDS011;8828;48.800;9.540;2022-08-19T13:55:46;16.97;;;11.07;;
17420;SDS011;8828;48.800;9.540;2022-08-19T13:58:14;19.70;;;11.93;;
17420;SDS011;8828;48.800;9.540;2022-08-19T14:00:43;17.40;;;10.63;;
17420;SDS011;8828;48.800;9.540;2022-08-19T14:03:12;17.03;;;10.57;;
17420;SDS011;8828;48.800;9.540;2022-08-19T14:05:42;14.90;;;10.27;;
17420;SDS011;8828;48.800;9.540;2022-08-19T14:08:12;18.13;;;11.33;;
17420;SDS011;8828;48.800;9.540;2022-08-19T14:10:40;16.30;;;10.93;;
17420;SDS011;8828;48.800;9.540;2022-08-19T14:13:12;18.80;;;11.10;;
17420;SDS011;8828;48.800;9.540;2022-08-19T14:15:41;19.13;;;11.83;;
17420;SDS011;8828;48.800;9.540;2022-08-19T14:18:11;15.80;;;10.87;;
17420;SDS011;8828;48.800;9.540;2022-08-19T14:20:39;18.40;;;11.37;;
17420;SDS011;8828;48.800;9.540;2022-08-19T14:23:09;19.87;;;11.90;;
17420;SDS011;8828;48.800;9.540;2022-08-19T14:25:38;18.23;;;11.00;;
17420;SDS011;8828;48.800;9.540;2022-08-19T14:28:07;15.33;;;9.83;;
17420;SDS011;8828;48.800;9.540;2022-08-19T14:30:35;15.43;;;10.47;;
17420;SDS011;8828;48.800;9.540;2022-08-19T14:33:05;13.10;;;9.40;;
17420;SDS011;8828;48.800;9.540;2022-08-19T14:35:34;14.03;;;9.37;;
17420;SDS011;8828;48.800;9.540;2022-08-19T14:38:02;13.97;;;9.87;;
17420;SDS011;8828;48.800;9.540;2022-08-19T14:40:33;13.67;;;8.93;;
17420;SDS011;8828;48.800;9.540;2022-08-19T14:43:02;15.30;;;10.33;;
17420;SDS011;8828;48.800;9.540;2022-08-19T14:45:32;15.70;;;9.70;;
17420;SDS011;8828;48.800;9.540;2022-08-19T14:48:06;15.90;;;10.50;;
17420;SDS011;8828;48.800;9.540;2022-08-19T14:50:44;15.63;;;10.00;;
17420;SDS011;8828;48.800;9.540;2022-08-19T14:53:12;14.60;;;9.83;;
17420;SDS011;8828;48.800;9.540;2022-08-19T14:55:42;17.03;;;11.63;;
17420;SDS011;8828;48.800;9.540;2022-08-19T14:58:12;15.03;;;10.47;;
17420;SDS011;8828;48.800;9.540;2022-08-19T15:00:55;15.20;;;10.57;;
17420;SDS011;8828;48.800;9.540;2022-08-19T15:03:25;16.93;;;10.20;;
17420;SDS011;8828;48.800;9.540;2022-08-19T15:05:53;16.50;;;11.57;;